createdAt,value
2022-10-18T00:00:04.805Z,1013.23
2022-10-18T00:05:03.161Z,1013.37
2022-10-18T00:10:04.386Z,1013.56
2022-10-18T00:15:03.164Z,1013.76
2022-10-18T00:20:04.280Z,1013.85
2022-10-18T00:25:03.361Z,1014.15
2022-10-18T00:30:06.091Z,1014.53
2022-10-18T00:35:03.208Z,1014.57
2022-10-18T00:40:04.237Z,1014.33
2022-10-18T00:45:03.211Z,1014.1
2022-10-18T00:50:04.729Z,1013.8
2022-10-18T00:55:03.161Z,1013.47
2022-10-18T01:00:06.131Z,1013.41
2022-10-18T01:05:03.184Z,1013.74
2022-10-18T01:10:04.387Z,1013.91
2022-10-18T01:15:03.280Z,1013.81
2022-10-18T01:20:06.168Z,1013.66
2022-10-18T01:30:04.779Z,1013.86
2022-10-18T01:35:03.187Z,1013.96
2022-10-18T01:40:04.279Z,1013.96
2022-10-18T01:45:03.374Z,1013.95
2022-10-18T01:50:05.885Z,1013.89
2022-10-18T01:55:04.217Z,1013.89
2022-10-18T02:00:07.709Z,1013.94
2022-10-18T02:05:03.156Z,1014.01
2022-10-18T02:10:07.912Z,1014.13
2022-10-18T02:15:03.167Z,1014.18
2022-10-18T02:20:05.897Z,1014.12
2022-10-18T02:25:03.382Z,1013.94
2022-10-18T02:30:05.184Z,1014.16
2022-10-18T02:35:03.264Z,1014.39
2022-10-18T02:40:04.305Z,1014.48
2022-10-18T02:45:03.291Z,1014.43
2022-10-18T02:50:04.283Z,1014.45
2022-10-18T02:55:03.192Z,1014.43
2022-10-18T03:00:05.595Z,1014.4
2022-10-18T03:05:03.183Z,1014.42
2022-10-18T03:10:04.237Z,1014.51
2022-10-18T03:15:03.233Z,1014.51
2022-10-18T03:20:04.355Z,1014.5
2022-10-18T03:25:03.209Z,1014.48
2022-10-18T03:30:05.858Z,1014.59
2022-10-18T03:35:03.128Z,1014.73
2022-10-18T03:40:04.273Z,1014.87
2022-10-18T03:45:03.189Z,1015.1
2022-10-18T03:50:04.334Z,1015.33
2022-10-18T03:55:03.198Z,1015.33
2022-10-18T04:00:06.164Z,1015.27
2022-10-18T04:05:03.159Z,1015.22
2022-10-18T04:10:07.148Z,1015.09
2022-10-18T04:15:03.240Z,1015.05
2022-10-18T04:20:04.395Z,1014.89
2022-10-18T04:25:03.222Z,1014.79
2022-10-18T04:30:06.099Z,1014.74
2022-10-18T04:35:03.275Z,1014.61
2022-10-18T04:40:04.404Z,1014.45
2022-10-18T04:45:03.257Z,1014.49
2022-10-18T04:50:04.253Z,1014.24
2022-10-18T04:55:03.168Z,1013.96
2022-10-18T05:00:06.066Z,1014.14
2022-10-18T05:05:03.245Z,1014.38
2022-10-18T05:10:04.349Z,1014.28
2022-10-18T05:15:03.144Z,1014.09
2022-10-18T05:20:04.391Z,1014.02
2022-10-18T05:25:03.109Z,1013.91
2022-10-18T05:30:06.165Z,1013.92
2022-10-18T05:35:03.233Z,1013.91
2022-10-18T05:40:04.300Z,1013.84
2022-10-18T05:45:03.138Z,1013.73
2022-10-18T05:50:04.254Z,1013.68
2022-10-18T05:55:03.239Z,1013.66
2022-10-18T06:00:06.286Z,1013.67
2022-10-18T06:05:03.215Z,1013.65
2022-10-18T06:10:04.349Z,1013.74
2022-10-18T06:15:03.231Z,1013.63
2022-10-18T06:20:04.289Z,1013.37
2022-10-18T06:25:03.129Z,1013.25
2022-10-18T06:30:04.833Z,1013.21
2022-10-18T06:35:03.162Z,1012.77
2022-10-18T06:40:04.429Z,1012.33
2022-10-18T06:45:03.130Z,1012.24
2022-10-18T06:50:04.331Z,1012.2
2022-10-18T06:55:06.101Z,1012.1
2022-10-18T07:00:06.112Z,1012.06
2022-10-18T07:05:03.177Z,1012.22
2022-10-18T07:10:04.283Z,1012.18
2022-10-18T07:15:06.895Z,1012.25
2022-10-18T07:20:04.324Z,1012.18
2022-10-18T07:25:03.241Z,1012.25
2022-10-18T07:30:04.328Z,1012.38
2022-10-18T07:35:03.321Z,1012.43
2022-10-18T07:40:04.258Z,1012.5
2022-10-18T07:45:03.225Z,1012.55
2022-10-18T07:50:04.303Z,1012.55
2022-10-18T07:55:03.162Z,1012.66
2022-10-18T08:00:06.194Z,1012.81
2022-10-18T08:05:03.206Z,1012.95
2022-10-18T08:10:04.185Z,1013.09
2022-10-18T08:15:03.126Z,1013.2
2022-10-18T08:20:11.972Z,1013.27
2022-10-18T08:25:03.229Z,1013.28
2022-10-18T08:30:06.075Z,1013.27
2022-10-18T08:35:04.264Z,1013.29
2022-10-18T08:40:04.436Z,1013.2
2022-10-18T08:45:08.136Z,1013.19
2022-10-18T08:50:04.346Z,1013.32
2022-10-18T08:55:03.222Z,1013.39
2022-10-18T09:00:06.053Z,1013.5
2022-10-18T09:05:03.192Z,1013.59
2022-10-18T09:10:04.270Z,1013.74
2022-10-18T09:15:03.182Z,1013.79
2022-10-18T09:20:04.189Z,1013.96
2022-10-18T09:25:03.312Z,1014.0
2022-10-18T09:30:06.020Z,1014.09
2022-10-18T09:35:03.219Z,1014.16
2022-10-18T09:40:04.300Z,1014.2
2022-10-18T09:45:03.168Z,1014.26
2022-10-18T09:50:04.379Z,1014.33
2022-10-18T09:55:03.144Z,1014.38
2022-10-18T10:00:05.857Z,1014.36
2022-10-18T10:05:03.212Z,1014.33
2022-10-18T10:10:04.296Z,1014.43
2022-10-18T10:15:03.151Z,1014.43
2022-10-18T10:20:04.263Z,1014.42
2022-10-18T10:25:03.246Z,1014.47
2022-10-18T10:30:07.402Z,1014.47
2022-10-18T10:35:03.204Z,1014.62
2022-10-18T10:40:17.624Z,1014.82
2022-10-18T10:45:03.383Z,1014.92
2022-10-18T10:50:04.293Z,1015.01
2022-10-18T10:55:23.476Z,1015.07
2022-10-18T11:00:06.143Z,1015.1
2022-10-18T11:05:03.218Z,1015.18
2022-10-18T11:10:04.330Z,1015.32
2022-10-18T11:15:03.213Z,1015.36
2022-10-18T11:20:04.293Z,1015.4
2022-10-18T11:25:03.204Z,1015.47
2022-10-18T11:30:04.735Z,1015.57
2022-10-18T11:35:03.216Z,1015.66
2022-10-18T11:40:04.290Z,1015.64
2022-10-18T11:45:03.141Z,1015.64
2022-10-18T11:50:04.315Z,1015.79
2022-10-18T11:55:03.152Z,1015.83
2022-10-18T12:00:04.669Z,1015.9
2022-10-18T12:05:23.364Z,1015.93
2022-10-18T12:10:04.270Z,1015.82
2022-10-18T12:15:03.150Z,1015.87
2022-10-18T12:20:04.389Z,1015.98
2022-10-18T12:25:03.182Z,1015.97
2022-10-18T12:30:06.135Z,1015.95
2022-10-18T12:35:03.155Z,1016.03
2022-10-18T12:40:10.447Z,1016.08
2022-10-18T12:45:03.165Z,1016.1
2022-10-18T12:50:04.340Z,1016.1
2022-10-18T12:55:03.596Z,1016.1
2022-10-18T13:00:06.321Z,1016.15
2022-10-18T13:05:03.467Z,1016.16
2022-10-18T13:10:04.388Z,1016.1
2022-10-18T13:15:21.030Z,1016.14
2022-10-18T13:20:24.357Z,1016.11
2022-10-18T13:25:03.218Z,1016.12
2022-10-18T13:30:04.681Z,1015.97
2022-10-18T13:35:03.412Z,1015.91
2022-10-18T13:40:04.311Z,1015.8
2022-10-18T13:45:03.202Z,1015.83
2022-10-18T13:50:04.338Z,1015.79
2022-10-18T13:55:03.259Z,1015.7
2022-10-18T14:00:05.375Z,1015.7
2022-10-18T14:05:16.854Z,1015.73
2022-10-18T14:10:05.098Z,1015.63
2022-10-18T14:15:03.242Z,1015.71
2022-10-18T14:20:04.249Z,1015.7
2022-10-18T14:25:03.142Z,1015.69
2022-10-18T14:30:06.140Z,1015.67
2022-10-18T14:35:30.900Z,1015.69
2022-10-18T14:40:04.375Z,1015.67
2022-10-18T14:45:03.232Z,1015.6
2022-10-18T14:50:04.328Z,1015.62
2022-10-18T14:55:03.290Z,1015.55
2022-10-18T15:00:04.803Z,1015.59
2022-10-18T15:05:03.496Z,1015.68
2022-10-18T15:10:04.497Z,1015.66
2022-10-18T15:15:03.247Z,1015.63
2022-10-18T15:20:05.861Z,1015.61
2022-10-18T15:25:03.167Z,1015.55
2022-10-18T15:30:04.689Z,1015.51
2022-10-18T15:35:03.177Z,1015.53
2022-10-18T15:40:04.315Z,1015.45
2022-10-18T15:45:03.375Z,1015.43
2022-10-18T15:50:04.285Z,1015.41
2022-10-18T15:55:03.145Z,1015.35
2022-10-18T16:00:04.819Z,1015.35
2022-10-18T16:05:03.104Z,1015.29
2022-10-18T16:10:04.405Z,1015.24
2022-10-18T16:15:03.325Z,1015.18
2022-10-18T16:20:04.373Z,1015.18
2022-10-18T16:25:03.158Z,1015.15
2022-10-18T16:30:07.300Z,1015.03
2022-10-18T16:35:04.595Z,1014.9
2022-10-18T16:40:04.371Z,1014.79
2022-10-18T16:45:03.141Z,1014.81
2022-10-18T16:50:05.723Z,1014.7
2022-10-18T16:55:03.221Z,1014.57
2022-10-18T17:00:04.434Z,1014.51
2022-10-18T17:05:03.137Z,1014.46
2022-10-18T17:10:04.412Z,1014.35
2022-10-18T17:15:03.324Z,1014.24
2022-10-18T17:20:04.546Z,1014.17
2022-10-18T17:25:03.258Z,1014.18
2022-10-18T17:30:06.162Z,1014.07
2022-10-18T17:35:03.212Z,1013.99
2022-10-18T17:40:04.399Z,1013.85
2022-10-18T17:45:03.317Z,1013.74
2022-10-18T17:50:04.492Z,1013.7
2022-10-18T17:55:03.100Z,1013.67
2022-10-18T18:00:04.859Z,1013.72
2022-10-18T18:05:03.256Z,1013.78
2022-10-18T18:10:04.351Z,1013.76
2022-10-18T18:15:03.241Z,1013.66
2022-10-18T18:20:04.421Z,1013.55
2022-10-18T18:25:03.130Z,1013.47
2022-10-18T18:30:04.477Z,1013.37
2022-10-18T18:35:03.174Z,1013.31
2022-10-18T18:40:04.360Z,1013.31
2022-10-18T18:45:03.406Z,1013.36
2022-10-18T18:50:05.289Z,1013.31
2022-10-18T18:55:03.301Z,1013.28
2022-10-18T19:00:11.228Z,1013.36
2022-10-18T19:05:03.194Z,1013.21
2022-10-18T19:10:11.038Z,1013.03
2022-10-18T19:15:03.229Z,1013.11
2022-10-18T19:20:04.762Z,1013.19
2022-10-18T19:25:03.302Z,1013.23
2022-10-18T19:30:11.081Z,1013.03
2022-10-18T19:35:03.149Z,1013.01
2022-10-18T19:40:11.115Z,1013.19
2022-10-18T19:45:03.230Z,1013.12
2022-10-18T19:50:04.477Z,1013.17
2022-10-18T19:55:03.309Z,1013.23
2022-10-18T20:00:08.159Z,1013.23
2022-10-18T20:05:03.147Z,1013.21
2022-10-18T20:10:06.187Z,1013.26
2022-10-18T20:15:03.201Z,1013.32
2022-10-18T20:20:04.275Z,1013.39
2022-10-18T20:25:03.222Z,1013.34
2022-10-18T20:30:06.469Z,1013.3
2022-10-18T20:35:03.322Z,1013.34
2022-10-18T20:40:04.385Z,1013.23
2022-10-18T20:50:04.394Z,1013.31
2022-10-18T20:55:03.242Z,1013.51
2022-10-18T21:00:06.173Z,1013.57
2022-10-18T21:05:03.169Z,1013.42
2022-10-18T21:10:04.318Z,1013.42
2022-10-18T21:15:03.201Z,1013.47
2022-10-18T21:20:07.522Z,1013.75
2022-10-18T21:25:03.146Z,1013.9
2022-10-18T21:30:04.706Z,1013.93
2022-10-18T21:35:03.069Z,1013.93
2022-10-18T21:40:04.360Z,1013.85
2022-10-18T21:45:03.166Z,1013.83
2022-10-18T21:50:05.135Z,1013.93
2022-10-18T21:55:03.255Z,1013.87
2022-10-18T22:00:09.627Z,1014.02
2022-10-18T22:05:05.979Z,1014.21
2022-10-18T22:10:04.362Z,1014.15
2022-10-18T22:15:03.191Z,1013.92
2022-10-18T22:20:04.361Z,1013.93
2022-10-18T22:25:04.252Z,1014.02
2022-10-18T22:30:04.720Z,1014.12
2022-10-18T22:35:03.240Z,1014.25
2022-10-18T22:40:05.845Z,1014.4
2022-10-18T22:45:03.307Z,1014.39
2022-10-18T22:50:04.914Z,1014.49
2022-10-18T22:55:03.274Z,1014.71
2022-10-18T23:00:04.580Z,1014.68
2022-10-18T23:05:03.228Z,1014.55
2022-10-18T23:10:09.483Z,1014.67
2022-10-18T23:15:03.287Z,1014.87
2022-10-18T23:20:04.539Z,1014.78
2022-10-18T23:25:03.374Z,1014.56
2022-10-18T23:30:05.914Z,1014.44
2022-10-18T23:35:03.208Z,1014.3
2022-10-18T23:40:04.558Z,1014.07
2022-10-18T23:45:03.292Z,1014.31
2022-10-18T23:50:04.482Z,1014.44
2022-10-18T23:55:03.270Z,1014.34
